createdAt,value
2023-05-01T00:02:39.328Z,25.73
2023-05-01T00:05:20.532Z,24.13
2023-05-01T00:08:07.025Z,27.60
2023-05-01T00:10:54.358Z,28.00
2023-05-01T00:13:36.451Z,27.50
2023-05-01T00:16:26.854Z,35.80
2023-05-01T00:19:10.801Z,35.00
2023-05-01T00:24:42.197Z,30.20
2023-05-01T00:27:28.709Z,25.50
2023-05-01T00:30:08.932Z,26.20
2023-05-01T00:33:01.036Z,24.50
2023-05-01T00:35:39.049Z,27.95
2023-05-01T00:38:21.725Z,26.35
2023-05-01T00:41:05.448Z,32.15
2023-05-01T00:43:48.393Z,32.47
2023-05-01T00:46:35.724Z,31.30
2023-05-01T00:49:19.956Z,27.88
2023-05-01T00:52:01.109Z,25.77
2023-05-01T00:54:42.577Z,25.77
2023-05-01T00:57:26.092Z,28.65
2023-05-01T01:00:17.472Z,27.35
2023-05-01T01:03:02.699Z,25.13
2023-05-01T01:06:01.610Z,28.05
2023-05-01T01:08:59.454Z,27.70
2023-05-01T01:11:56.308Z,27.77
2023-05-01T01:14:58.113Z,27.33
2023-05-01T01:18:05.761Z,27.50
2023-05-01T01:20:57.536Z,27.88
2023-05-01T01:24:37.251Z,30.52
2023-05-01T01:27:42.716Z,25.27
2023-05-01T01:30:30.397Z,29.85
2023-05-01T01:33:23.908Z,32.63
2023-05-01T01:36:11.947Z,36.53
2023-05-01T01:39:02.407Z,36.20
2023-05-01T01:41:52.952Z,37.85
2023-05-01T01:44:38.788Z,43.97
2023-05-01T01:47:15.530Z,39.10
2023-05-01T01:50:04.342Z,41.92
2023-05-01T01:52:54.496Z,40.03
2023-05-01T01:55:41.263Z,35.58
2023-05-01T01:58:27.715Z,37.28
2023-05-01T02:01:13.996Z,38.10
2023-05-01T02:03:52.681Z,36.22
2023-05-01T02:06:34.418Z,39.58
2023-05-01T02:09:22.536Z,37.53
2023-05-01T02:12:02.620Z,43.42
2023-05-01T02:14:40.358Z,48.88
2023-05-01T02:17:25.366Z,46.15
2023-05-01T02:20:03.000Z,42.80
2023-05-01T02:22:50.635Z,39.03
2023-05-01T02:25:40.163Z,42.42
2023-05-01T02:28:22.136Z,48.78
2023-05-01T02:31:03.869Z,50.38
2023-05-01T02:33:41.648Z,45.75
2023-05-01T02:36:28.262Z,46.75
2023-05-01T02:39:06.701Z,43.38
2023-05-01T02:41:49.755Z,43.47
2023-05-01T02:44:30.883Z,45.95
2023-05-01T02:47:13.159Z,46.88
2023-05-01T02:49:51.816Z,43.33
2023-05-01T02:52:36.398Z,43.22
2023-05-01T02:55:43.661Z,43.45
2023-05-01T02:58:29.529Z,50.28
2023-05-01T03:01:12.021Z,51.65
2023-05-01T03:03:52.941Z,53.55
2023-05-01T03:06:33.545Z,50.50
2023-05-01T03:09:12.437Z,53.42
2023-05-01T03:11:52.197Z,53.20
2023-05-01T03:14:29.276Z,54.63
2023-05-01T03:17:21.823Z,53.40
2023-05-01T03:20:03.003Z,54.28
2023-05-01T03:22:46.257Z,55.00
2023-05-01T03:25:37.684Z,50.78
2023-05-01T03:28:23.551Z,53.72
2023-05-01T03:31:14.379Z,52.03
2023-05-01T03:33:57.644Z,53.17
2023-05-01T03:36:46.604Z,62.40
2023-05-01T03:39:28.010Z,68.38
2023-05-01T03:42:27.728Z,75.07
2023-05-01T03:45:11.541Z,67.28
2023-05-01T03:48:01.484Z,58.67
2023-05-01T03:50:41.566Z,57.03
2023-05-01T03:53:36.736Z,53.20
2023-05-01T03:56:20.016Z,50.20
2023-05-01T04:01:37.310Z,47.70
2023-05-01T04:04:22.448Z,49.22
2023-05-01T04:07:11.386Z,54.30
2023-05-01T04:09:55.835Z,54.05
2023-05-01T04:12:40.759Z,52.05
2023-05-01T04:15:16.491Z,55.47
2023-05-01T04:18:12.502Z,52.85
2023-05-01T04:20:55.268Z,52.90
2023-05-01T04:23:33.738Z,57.90
2023-05-01T04:29:05.868Z,56.77
2023-05-01T04:31:52.564Z,63.13
2023-05-01T04:34:39.364Z,70.07
2023-05-01T04:37:18.367Z,71.60
2023-05-01T04:39:59.708Z,82.78
2023-05-01T04:42:43.992Z,86.78
2023-05-01T04:45:33.222Z,94.38
2023-05-01T04:48:15.334Z,104.13
2023-05-01T04:50:55.953Z,111.75
2023-05-01T04:53:41.513Z,125.35
2023-05-01T04:56:30.468Z,129.18
2023-05-01T04:59:20.647Z,127.78
2023-05-01T05:02:08.750Z,116.70
2023-05-01T05:04:57.749Z,114.55
2023-05-01T05:07:38.778Z,92.63
2023-05-01T05:11:10.487Z,55.13
2023-05-01T05:13:58.422Z,40.47
2023-05-01T05:16:46.526Z,32.35
2023-05-01T05:19:33.655Z,23.83
2023-05-01T05:22:22.899Z,18.15
2023-05-01T05:25:22.960Z,17.50
2023-05-01T05:28:18.935Z,16.55
2023-05-01T05:31:08.131Z,14.02
2023-05-01T05:33:46.960Z,18.67
2023-05-01T05:36:33.336Z,15.07
2023-05-01T05:39:17.125Z,14.30
2023-05-01T05:42:04.686Z,12.90
2023-05-01T05:44:41.253Z,10.55
2023-05-01T05:47:25.317Z,10.10
2023-05-01T05:50:09.834Z,10.68
2023-05-01T05:52:52.324Z,12.70
2023-05-01T05:55:28.266Z,10.48
2023-05-01T05:58:22.740Z,10.15
2023-05-01T06:01:10.304Z,10.73
2023-05-01T06:03:59.776Z,8.55
2023-05-01T06:06:49.812Z,9.93
2023-05-01T06:09:34.272Z,6.32
2023-05-01T06:12:23.159Z,5.28
2023-05-01T06:15:05.900Z,9.23
2023-05-01T06:17:59.840Z,6.00
2023-05-01T06:20:52.908Z,10.93
2023-05-01T06:23:39.513Z,6.53
2023-05-01T06:26:38.320Z,7.20
2023-05-01T06:29:21.724Z,8.88
2023-05-01T06:32:11.850Z,5.80
2023-05-01T06:34:58.799Z,6.00
2023-05-01T06:37:44.888Z,6.10
2023-05-01T06:40:29.255Z,4.20
2023-05-01T06:43:17.081Z,4.68
2023-05-01T06:46:00.418Z,7.78
2023-05-01T06:48:38.816Z,9.25
2023-05-01T06:51:25.832Z,38.40
2023-05-01T06:54:09.489Z,5.25
2023-05-01T06:57:01.729Z,76.70
2023-05-01T06:59:47.682Z,198.00
2023-05-01T07:02:28.399Z,7.45
2023-05-01T07:05:19.809Z,40.67
2023-05-01T07:08:01.669Z,10.07
2023-05-01T07:10:42.799Z,11.88
2023-05-01T07:13:23.840Z,27.55
2023-05-01T07:16:04.894Z,10.30
2023-05-01T07:18:50.922Z,5.75
2023-05-01T07:21:37.087Z,11.23
2023-05-01T07:24:22.300Z,6.33
2023-05-01T07:26:54.761Z,10.90
2023-05-01T07:29:28.311Z,4.35
2023-05-01T07:32:05.498Z,10.73
2023-05-01T07:35:03.808Z,8.52
2023-05-01T07:37:45.904Z,7.60
2023-05-01T07:40:22.788Z,7.72
2023-05-01T07:43:17.507Z,5.35
2023-05-01T07:46:02.882Z,3.80
2023-05-01T07:48:48.124Z,5.20
2023-05-01T07:51:24.298Z,5.10
2023-05-01T07:54:08.247Z,5.55
2023-05-01T07:56:58.314Z,5.72
2023-05-01T07:59:33.703Z,7.35
2023-05-01T08:02:13.859Z,5.90
2023-05-01T08:04:58.212Z,9.43
2023-05-01T08:07:34.348Z,5.20
2023-05-01T08:10:15.643Z,5.10
2023-05-01T08:12:55.082Z,5.60
2023-05-01T08:15:31.473Z,4.32
2023-05-01T08:18:04.387Z,13.15
2023-05-01T08:20:45.770Z,8.90
2023-05-01T08:23:19.887Z,6.10
2023-05-01T08:25:56.313Z,8.32
2023-05-01T08:28:48.985Z,3.85
2023-05-01T08:31:28.482Z,6.10
2023-05-01T08:34:09.072Z,6.80
2023-05-01T08:37:04.137Z,8.57
2023-05-01T08:39:42.851Z,4.57
2023-05-01T08:42:23.064Z,9.27
2023-05-01T08:45:05.561Z,8.35
2023-05-01T08:47:54.516Z,7.47
2023-05-01T08:50:34.116Z,5.20
2023-05-01T08:53:17.809Z,4.15
2023-05-01T08:55:58.599Z,5.97
2023-05-01T08:58:43.321Z,9.35
2023-05-01T09:01:27.719Z,4.75
2023-05-01T09:04:10.322Z,5.72
2023-05-01T09:06:47.759Z,31.67
2023-05-01T09:09:25.606Z,22.45
2023-05-01T09:12:26.086Z,11.27
2023-05-01T09:15:05.127Z,6.75
2023-05-01T09:17:42.691Z,4.15
2023-05-01T09:20:29.297Z,8.05
2023-05-01T09:23:07.649Z,5.13
2023-05-01T09:25:43.381Z,4.82
2023-05-01T09:28:46.592Z,5.03
2023-05-01T09:31:38.213Z,12.02
2023-05-01T09:34:14.543Z,6.53
2023-05-01T09:36:53.320Z,6.63
2023-05-01T09:39:35.020Z,7.93
2023-05-01T09:42:13.182Z,9.13
2023-05-01T09:44:53.507Z,7.00
2023-05-01T09:47:34.778Z,6.28
2023-05-01T09:50:12.675Z,3.17
2023-05-01T09:52:53.487Z,4.88
2023-05-01T09:55:31.658Z,6.60
2023-05-01T09:58:13.867Z,5.63
2023-05-01T10:01:01.189Z,5.97
2023-05-01T10:03:46.190Z,6.78
2023-05-01T10:06:30.447Z,5.38
2023-05-01T10:09:16.862Z,3.78
2023-05-01T10:12:01.556Z,4.20
2023-05-01T10:14:51.620Z,4.20
2023-05-01T10:17:23.840Z,4.25
2023-05-01T10:19:56.337Z,5.13
2023-05-01T10:22:31.295Z,10.32
2023-05-01T10:25:18.136Z,5.50
2023-05-01T10:28:11.688Z,5.18
2023-05-01T10:30:55.004Z,4.82
2023-05-01T10:33:38.651Z,5.60
2023-05-01T10:36:34.270Z,7.05
2023-05-01T10:39:29.035Z,4.65
2023-05-01T10:42:14.094Z,3.95
2023-05-01T10:44:49.845Z,5.93
2023-05-01T10:47:32.002Z,4.00
2023-05-01T10:50:17.911Z,6.03
2023-05-01T10:53:10.017Z,5.05
2023-05-01T10:55:52.308Z,3.65
2023-05-01T10:58:58.421Z,4.20
2023-05-01T11:01:46.077Z,4.30
2023-05-01T11:04:27.923Z,4.70
2023-05-01T11:07:17.967Z,7.00
2023-05-01T11:10:02.352Z,4.40
2023-05-01T11:12:49.650Z,3.92
2023-05-01T11:15:27.426Z,6.75
2023-05-01T11:18:11.152Z,4.68
2023-05-01T11:20:54.487Z,4.07
2023-05-01T11:23:32.165Z,4.50
2023-05-01T11:26:23.419Z,2.97
2023-05-01T11:29:02.777Z,4.68
2023-05-01T11:31:39.961Z,3.15
2023-05-01T11:34:22.621Z,4.22
2023-05-01T11:36:55.107Z,4.55
2023-05-01T11:39:28.466Z,4.43
2023-05-01T11:42:16.169Z,4.60
2023-05-01T11:45:12.175Z,3.45
2023-05-01T11:47:47.412Z,4.00
2023-05-01T11:50:23.477Z,2.92
2023-05-01T11:53:07.000Z,4.15
2023-05-01T11:58:36.469Z,5.15
2023-05-01T12:01:20.965Z,3.80
2023-05-01T12:03:59.445Z,6.05
2023-05-01T12:06:45.708Z,3.75
2023-05-01T12:09:27.083Z,4.22
2023-05-01T12:12:04.471Z,3.67
2023-05-01T12:14:43.513Z,3.50
2023-05-01T12:17:24.400Z,3.42
2023-05-01T12:20:11.374Z,3.28
2023-05-01T12:22:52.965Z,10.77
2023-05-01T12:25:28.190Z,5.55
2023-05-01T12:28:07.745Z,4.00
2023-05-01T12:30:46.465Z,3.90
2023-05-01T12:33:18.622Z,4.05
2023-05-01T12:36:15.853Z,3.83
2023-05-01T12:39:04.147Z,3.05
2023-05-01T12:41:53.388Z,6.10
2023-05-01T12:44:37.102Z,6.28
2023-05-01T12:47:16.187Z,3.47
2023-05-01T12:50:03.180Z,3.17
2023-05-01T12:52:38.803Z,2.83
2023-05-01T12:55:09.884Z,3.55
2023-05-01T12:58:05.180Z,5.18
2023-05-01T13:00:56.396Z,3.88
2023-05-01T13:03:40.733Z,3.20
2023-05-01T13:06:32.605Z,6.07
2023-05-01T13:09:13.308Z,6.32
2023-05-01T13:12:02.493Z,4.90
2023-05-01T13:14:48.197Z,5.80
2023-05-01T13:17:26.433Z,3.25
2023-05-01T13:20:04.326Z,2.60
2023-05-01T13:22:51.058Z,2.38
2023-05-01T13:25:31.877Z,3.08
2023-05-01T13:28:07.995Z,2.42
2023-05-01T13:30:46.984Z,3.25
2023-05-01T13:33:27.545Z,3.00
2023-05-01T13:36:17.780Z,4.60
2023-05-01T13:39:00.618Z,2.65
2023-05-01T13:41:42.017Z,2.25
2023-05-01T13:44:31.338Z,3.53
2023-05-01T13:47:09.081Z,3.70
2023-05-01T13:49:48.318Z,6.63
2023-05-01T13:52:26.300Z,3.83
2023-05-01T13:55:05.759Z,3.97
2023-05-01T13:57:46.789Z,5.70
2023-05-01T14:00:26.060Z,3.28
2023-05-01T14:03:03.292Z,2.13
2023-05-01T14:05:42.444Z,4.85
2023-05-01T14:08:34.336Z,2.33
2023-05-01T14:11:13.728Z,2.47
2023-05-01T14:13:55.947Z,1.83
2023-05-01T14:16:38.591Z,4.47
2023-05-01T14:19:23.719Z,2.78
2023-05-01T14:22:10.881Z,3.25
2023-05-01T14:25:02.188Z,3.53
2023-05-01T14:27:38.528Z,2.22
2023-05-01T14:30:27.283Z,2.47
2023-05-01T14:33:22.198Z,2.50
2023-05-01T14:36:07.953Z,3.65
2023-05-01T14:38:49.346Z,2.67
2023-05-01T14:41:30.348Z,2.10
2023-05-01T14:44:13.859Z,1.98
2023-05-01T14:46:57.851Z,3.38
2023-05-01T14:49:33.340Z,6.28
2023-05-01T14:52:09.508Z,2.38
2023-05-01T14:54:53.222Z,2.53
2023-05-01T14:57:33.420Z,1.73
2023-05-01T15:00:07.036Z,5.30
2023-05-01T15:05:15.246Z,4.60
2023-05-01T15:08:00.749Z,2.55
2023-05-01T15:10:38.890Z,1.40
2023-05-01T15:13:17.217Z,3.70
2023-05-01T15:16:00.803Z,3.35
2023-05-01T15:18:38.490Z,2.42
2023-05-01T15:21:13.243Z,2.95
2023-05-01T15:23:53.580Z,4.53
2023-05-01T15:26:33.434Z,2.72
2023-05-01T15:29:29.185Z,5.53
2023-05-01T15:32:12.356Z,1.83
2023-05-01T15:34:57.176Z,2.85
2023-05-01T15:37:33.338Z,5.47
2023-05-01T15:40:13.072Z,4.03
2023-05-01T15:42:49.408Z,2.42
2023-05-01T15:45:42.773Z,2.05
2023-05-01T15:48:23.384Z,2.95
2023-05-01T15:51:09.221Z,3.10
2023-05-01T15:53:58.710Z,2.83
2023-05-01T15:56:31.950Z,1.92
2023-05-01T15:59:17.652Z,6.50
2023-05-01T16:01:59.471Z,4.03
2023-05-01T16:04:34.352Z,3.53
2023-05-01T16:07:25.907Z,5.38
2023-05-01T16:10:06.322Z,5.43
2023-05-01T16:12:44.603Z,4.65
2023-05-01T16:15:25.240Z,3.65
2023-05-01T16:18:09.713Z,5.97
2023-05-01T16:20:48.726Z,4.07
2023-05-01T16:23:27.804Z,3.50
2023-05-01T16:26:03.173Z,4.00
2023-05-01T16:28:45.553Z,10.98
2023-05-01T16:31:27.899Z,5.55
2023-05-01T16:33:59.521Z,5.95
2023-05-01T16:36:42.477Z,2.78
2023-05-01T16:39:26.942Z,5.60
2023-05-01T16:42:01.396Z,4.07
2023-05-01T16:44:43.194Z,5.93
2023-05-01T16:47:26.613Z,4.80
2023-05-01T16:50:04.915Z,7.85
2023-05-01T16:52:56.434Z,4.90
2023-05-01T16:58:05.607Z,3.90
2023-05-01T17:00:46.562Z,4.05
2023-05-01T17:03:24.317Z,3.70
2023-05-01T17:05:59.263Z,5.18
2023-05-01T17:08:47.924Z,4.13
2023-05-01T17:11:20.092Z,5.13
2023-05-01T17:14:06.230Z,5.18
2023-05-01T17:16:52.716Z,5.57
2023-05-01T17:19:30.413Z,7.22
2023-05-01T17:22:12.093Z,5.80
2023-05-01T17:25:02.329Z,5.53
2023-05-01T17:27:41.059Z,8.60
2023-05-01T17:30:25.339Z,5.55
2023-05-01T17:33:10.494Z,6.93
2023-05-01T17:35:43.349Z,6.82
2023-05-01T17:38:24.193Z,5.78
2023-05-01T17:41:04.158Z,4.43
2023-05-01T17:43:44.632Z,3.50
2023-05-01T17:46:16.736Z,7.93
2023-05-01T17:48:58.863Z,8.50
2023-05-01T17:51:45.450Z,9.25
2023-05-01T17:54:31.355Z,7.18
2023-05-01T17:57:17.633Z,7.88
2023-05-01T18:00:01.812Z,10.50
2023-05-01T18:02:49.214Z,8.75
2023-05-01T18:05:24.699Z,7.88
2023-05-01T18:08:01.174Z,6.85
2023-05-01T18:10:41.625Z,15.15
2023-05-01T18:13:27.717Z,8.95
2023-05-01T18:16:07.392Z,11.93
2023-05-01T18:18:48.176Z,6.28
2023-05-01T18:21:28.851Z,10.50
2023-05-01T18:24:13.120Z,7.95
2023-05-01T18:26:54.310Z,6.80
2023-05-01T18:29:31.975Z,4.32
2023-05-01T18:32:13.369Z,8.45
2023-05-01T18:35:00.819Z,5.30
2023-05-01T18:37:44.164Z,5.75
2023-05-01T18:40:19.946Z,8.60
2023-05-01T18:42:58.401Z,7.18
2023-05-01T18:45:31.075Z,3.13
2023-05-01T18:48:19.529Z,4.05
2023-05-01T18:51:09.382Z,5.18
2023-05-01T18:53:42.113Z,5.82
2023-05-01T18:56:32.879Z,6.40
2023-05-01T18:59:10.484Z,6.13
2023-05-01T19:01:53.270Z,6.32
2023-05-01T19:04:55.959Z,5.75
2023-05-01T19:07:35.248Z,9.88
2023-05-01T19:10:08.314Z,6.63
2023-05-01T19:12:43.196Z,11.27
2023-05-01T19:15:30.118Z,9.50
2023-05-01T19:18:21.458Z,10.00
2023-05-01T19:21:05.662Z,9.55
2023-05-01T19:23:46.079Z,14.63
2023-05-01T19:26:42.144Z,14.38
2023-05-01T19:29:19.188Z,15.05
2023-05-01T19:32:03.060Z,12.95
2023-05-01T19:34:43.370Z,15.57
2023-05-01T19:37:31.234Z,15.13
2023-05-01T19:40:12.284Z,13.02
2023-05-01T19:42:58.097Z,17.20
2023-05-01T19:45:40.811Z,14.82
2023-05-01T19:48:21.985Z,15.50
2023-05-01T19:51:10.339Z,13.55
2023-05-01T19:53:45.520Z,13.70
2023-05-01T19:56:30.283Z,11.70
2023-05-01T19:59:14.745Z,12.98
2023-05-01T20:01:45.129Z,15.82
2023-05-01T20:04:26.009Z,15.45
2023-05-01T20:07:04.829Z,13.52
2023-05-01T20:09:42.666Z,22.05
2023-05-01T20:12:22.933Z,13.30
2023-05-01T20:15:04.707Z,15.90
2023-05-01T20:17:40.116Z,14.00
2023-05-01T20:20:18.825Z,15.90
2023-05-01T20:22:57.492Z,18.00
2023-05-01T20:25:33.378Z,15.43
2023-05-01T20:28:13.345Z,13.68
2023-05-01T20:30:55.433Z,14.15
2023-05-01T20:33:33.191Z,12.27
2023-05-01T20:36:06.547Z,12.27
2023-05-01T20:38:53.320Z,7.60
2023-05-01T20:41:29.336Z,11.73
2023-05-01T20:44:12.235Z,9.73
2023-05-01T20:46:53.008Z,10.18
2023-05-01T20:49:35.659Z,11.32
2023-05-01T20:52:22.407Z,8.07
2023-05-01T20:55:00.762Z,8.25
2023-05-01T20:57:47.508Z,8.75
2023-05-01T21:00:28.522Z,7.03
2023-05-01T21:03:03.768Z,9.20
2023-05-01T21:05:41.401Z,11.35
2023-05-01T21:08:23.176Z,7.30
2023-05-01T21:10:58.212Z,13.70
2023-05-01T21:13:34.999Z,7.65
2023-05-01T21:16:16.305Z,6.18
2023-05-01T21:18:54.759Z,4.75
2023-05-01T21:21:36.877Z,8.25
2023-05-01T21:24:21.541Z,8.93
2023-05-01T21:27:07.925Z,5.95
2023-05-01T21:29:56.599Z,12.43
2023-05-01T21:32:47.806Z,10.43
2023-05-01T21:35:34.384Z,8.45
2023-05-01T21:38:12.378Z,6.80
2023-05-01T21:40:48.888Z,12.70
2023-05-01T21:43:23.819Z,7.57
2023-05-01T21:45:55.657Z,8.52
2023-05-01T21:48:31.778Z,7.65
2023-05-01T21:51:07.389Z,6.65
2023-05-01T21:53:59.475Z,7.30
2023-05-01T21:56:42.114Z,7.65
2023-05-01T21:59:25.061Z,7.30
2023-05-01T22:01:59.563Z,5.82
2023-05-01T22:04:40.774Z,6.82
2023-05-01T22:07:18.767Z,8.65
2023-05-01T22:09:52.205Z,8.98
2023-05-01T22:12:38.259Z,6.13
2023-05-01T22:15:15.701Z,8.25
2023-05-01T22:17:56.354Z,8.48
2023-05-01T22:20:27.986Z,8.48
2023-05-01T22:23:15.397Z,10.05
2023-05-01T22:25:50.014Z,5.93
2023-05-01T22:28:29.332Z,8.43
2023-05-01T22:31:04.464Z,8.10
2023-05-01T22:33:37.165Z,8.00
2023-05-01T22:36:12.640Z,6.15
2023-05-01T22:38:54.364Z,8.30
2023-05-01T22:41:29.377Z,5.75
2023-05-01T22:44:07.682Z,6.97
2023-05-01T22:46:48.438Z,8.25
2023-05-01T22:49:28.126Z,7.93
2023-05-01T22:51:56.337Z,7.35
2023-05-01T22:54:36.394Z,7.85
2023-05-01T22:57:11.137Z,10.88
2023-05-01T22:59:40.638Z,11.30
2023-05-01T23:02:22.365Z,11.35
2023-05-01T23:05:00.697Z,12.27
2023-05-01T23:07:43.652Z,7.65
2023-05-01T23:10:33.012Z,8.13
2023-05-01T23:13:19.080Z,9.27
2023-05-01T23:15:54.536Z,7.57
2023-05-01T23:18:42.863Z,7.43
2023-05-01T23:21:19.420Z,9.07
2023-05-01T23:24:05.999Z,11.73
2023-05-01T23:26:45.051Z,9.00
2023-05-01T23:29:23.352Z,9.60
2023-05-01T23:32:00.731Z,9.85
2023-05-01T23:34:35.651Z,9.98
2023-05-01T23:37:18.834Z,11.90
2023-05-01T23:40:02.065Z,11.05
2023-05-01T23:42:44.056Z,10.77
2023-05-01T23:45:22.192Z,10.07
2023-05-01T23:47:54.179Z,11.43
2023-05-01T23:50:27.116Z,11.23
2023-05-01T23:53:11.247Z,11.48
2023-05-01T23:55:54.562Z,10.80
2023-05-01T23:58:38.365Z,13.13
